Terminal Aerodrome Forecast
Issued by NWS

Home | Current Version | Previous Version | Text Only | Print | Product List | Glossary On
Versions: 1 2 3 4 5 6 7 8 9 10 11 12
851
FTUS45 KABQ 191139
TAFGUP
TAF
KGUP 191139Z 1912/2012 00000KT P6SM BKN110
     FM191600 23005KT P6SM VCSH BKN100
     FM192100 23010KT P6SM VCSH OVC080
      TEMPO 1923/2001 VRB18G25KT -TSRA BKN070CB
     FM200300 15008KT P6SM SCT080
     FM200700 VRB04KT P6SM SKC=

USA.gov is the U.S. government's official web portal to all federal, state and local government web resources and services.